Nearby METAR Reports


Data Updates Approximately Every Four Hours

METAR is the international standard code format for hourly surface weather observations which is analogous to the SA coding currently used in the US. The acronym roughly translates from French as Aviation Routine Weather Report. SPECI is merely the code name given to METAR formatted products which are issued on a special non-routine basis as dictated by changing meteorological conditions. The SPECI acronym roughly translates as Aviation Selected Special Weather Report.

KSLH - Cheboygan, Michigan, USA
Distance from station: W 9mi, 14km
Updated: 01/16/2018 7:55am
Light snow, Overcast
Light snow, Overcast
 Wind from N
Wind: N 7 mph , 11 km/h
Temperature: 12°F , -11°C
Wind Chill: 1°F , -17°C
Dew Point: 9°F , -13°C
Humidity: 85%
Barometer: 30.41 inHg , 1029.8 hPa
Summary: Light Snow
Clouds: Overcast
Visibility: 7 miles , 11 km
Cloud details: Overcast 2200 ft
2018/01/16 12:55 KSLH 161255Z AUTO 01006KT 7SM -SN OVC022 M11/M13 A3041 RMK AO2 T11071135
KMCD - Mackinac Island, Michigan, USA
Distance from station: NW 19mi, 31km
Updated: 01/16/2018 7:55am
Overcast
Overcast
 Wind from NNE
Wind: NNE 6 mph , 9 km/h
Temperature: 10°F , -12°C
Wind Chill: 0°F , -18°C
Dew Point: 7°F , -14°C
Humidity: 85%
Barometer: 30.42 inHg , 1030.1 hPa
Clouds: Overcast
Visibility: 10 miles , 16 km
Cloud details: Overcast 1200 ft
2018/01/16 12:55 KMCD 161255Z AUTO 03005KT 10SM OVC012 M12/M14 A3042 RMK AO2 T11171137
 
KPLN - Pellston, Michigan, USA
Distance from station: WSW 24mi, 38km
Updated: 01/16/2018 7:54am
Light snow, Mist, Overcast
Light snow, Mist, Overcast
 Wind from NNW
Wind: NNW 5 mph , 7 km/h
Temperature: 5°F , -15°C
Wind Chill: -5°F , -21°C
Dew Point: 3°F , -16°C
Humidity: 92%
Barometer: 30.42 inHg , 1030.1 hPa
Summary: Light snow, Mist
Clouds: Overcast
Visibility: 5 miles , 8 km
Cloud details: Overcast 2200 ft
2018/01/16 12:54 KPLN 161254Z AUTO 33004KT 5SM -SN BR OVC022 M15/M16 A3042 RMK AO2 SNB45 SLP319 P0000 T11501161 $
KPZQ - Rogers City, Michigan, USA
Distance from station: SE 31mi, 50km
Updated: 01/16/2018 7:55am
Light snow, Overcast
Light snow, Overcast
 Wind from NNE
Wind: NNE 9 mph , 15 km/h
Temperature: 14°F , -10°C
Wind Chill: 2°F , -17°C
Dew Point: 10°F , -12°C
Humidity: 85%
Barometer: 30.41 inHg , 1029.8 hPa
Summary: Light Snow
Clouds: Overcast
Visibility: 4 miles , 6 km
Cloud details: Overcast 1600 ft
2018/01/16 12:55 KPZQ 161255Z AUTO 03008KT 4SM -SN OVC016 M10/M12 A3041 RMK AO2 T10981125
 
KMGN - Harbor Springs, Michigan, USA
Distance from station: WSW 32mi, 52km
Updated: 01/16/2018 7:55am
Light snow, Mostly cloudy
Light snow, Mostly cloudy
 Wind from N
Wind: N 6 mph , 9 km/h
Temperature: 9°F , -13°C
Wind Chill: -1°F , -18°C
Dew Point: 3°F , -16°C
Humidity: 78%
Barometer: 30.41 inHg , 1029.8 hPa
Summary: Light Snow
Clouds: Mostly cloudy
Visibility: 10 miles , 16 km
Cloud details: Partly cloudy 1600 ft
Mostly cloudy 2300 ft
2018/01/16 12:55 KMGN 161255Z AUTO 36005KT 10SM -SN SCT016 BKN023 M13/M16 A3041 RMK AO2 T11381158
KDRM - Drummond Is, Michigan, USA
Distance from station: NE 36mi, 59km
Updated: 01/16/2018 7:55am
Clear
Clear
 Wind from calm
Wind: Calm
Temperature: -2°F , -19°C
Dew Point: -4°F , -20°C
Humidity: 92%
Barometer: 30.43 inHg , 1030.5 hPa
Clouds: Clear
Visibility: 10 miles , 16 km
2018/01/16 12:55 KDRM 161255Z AUTO 00000KT 10SM CLR M19/M20 A3043 RMK AO2 T11911205
 
KCIU - Chippewa Intl, Michigan, USA
Distance from station: N 41mi, 66km
Updated: 01/16/2018 7:56am
Clear
Clear
 Wind from N
Wind: N 6 mph , 9 km/h
Temperature: 1°F , -17°C
Wind Chill: -11°F , -24°C
Dew Point: -0°F , -18°C
Humidity: 92%
Barometer: 30.43 inHg , 1030.5 hPa
Clouds: Clear
Visibility: 9 miles , 14 km
2018/01/16 12:56 KCIU 161256Z AUTO 36005KT 9SM CLR M17/M18 A3043 RMK AO2 SNB41E52 SLP332 T11671178 FZRANO PNO $
KGLR - Gaylord, Michigan, USA
Distance from station: SSW 48mi, 77km
Updated: 01/16/2018 7:53am
Light snow, Mist, Overcast
Light snow, Mist, Overcast
 Wind from NNE
Wind: NNE 5 mph , 7 km/h
Temperature: 9°F , -13°C
Wind Chill: 0°F , -18°C
Dew Point: 9°F , -13°C
Humidity: 100%
Barometer: 30.34 inHg , 1027.4 hPa
Summary: Light snow, Mist
Clouds: Overcast
Visibility: 4 miles , 6 km
Cloud details: Mostly cloudy 700 ft
Overcast 1000 ft
2018/01/16 12:53 KGLR 161253Z AUTO 02004KT 4SM -SN BR BKN007 OVC010 M13/M13 A3034 RMK AO2 SNE00B29 SLP303 P0000 T11331133
 
KCVX - Charlevoix, Michigan, USA
Distance from station: WSW 52mi, 83km
Updated: 01/16/2018 7:55am
Overcast
Overcast
 Wind from E
Wind: E 5 mph , 7 km/h
Temperature: 14°F , -10°C
Wind Chill: 6°F , -14°C
Dew Point: 10°F , -12°C
Humidity: 85%
Barometer: 30.45 inHg , 1031.2 hPa
Clouds: Overcast
Visibility: 10 miles , 16 km
Cloud details: Mostly cloudy 1700 ft
Overcast 2400 ft
2018/01/16 12:55 KCVX 161255Z AUTO 08004KT 10SM BKN017 OVC024 M10/M12 A3045 RMK AO2 T10981122
KANJ - Sault Ste Marie, Michigan, USA
Distance from station: N 56mi, 89km
Updated: 01/16/2018 7:55am
Clear
Clear
 Wind from NW
Wind: NW 3 mph , 6 km/h
Temperature: 3°F , -16°C
Dew Point: -0°F , -18°C
Humidity: 85%
Barometer: 30.44 inHg , 1030.8 hPa
Clouds: Clear
Visibility: 10 miles , 16 km
2018/01/16 12:55 KANJ 161255Z AUTO 31003KT 10SM CLR M16/M18 A3044 RMK AO2 SLP322 I1000 T11561178
 
KAPN - Alpena, Michigan, USA
Distance from station: SE 56mi, 89km
Updated: 01/16/2018 7:54am
Light snow, Mist, Overcast
Light snow, Mist, Overcast
 Wind from NNW
Wind: NNW 7 mph , 11 km/h
Temperature: 12°F , -11°C
Wind Chill: 1°F , -17°C
Dew Point: 10°F , -12°C
Humidity: 92%
Barometer: 30.39 inHg , 1029.1 hPa
Summary: Light snow, Mist
Clouds: Overcast
Visibility: 3 miles , 5 km
Cloud details: Overcast 1700 ft
2018/01/16 12:54 KAPN 161254Z AUTO 33006KT 3SM -SN BR OVC017 M11/M12 A3039 RMK AO2 SNE14B16 SLP304 P0000 T11111122 $
CYAM - Sault Ste Marie, Ontario, Canada
Distance from station: N 56mi, 90km
Updated: 01/16/2018 7:00am
Partly cloudy
Partly cloudy
 Wind from calm
Wind: Calm
Temperature: -2°F , -19°C
Dew Point: -6°F , -21°C
Humidity: 84%
Barometer: 30.44 inHg , 1030.8 hPa
Clouds: Partly cloudy
Visibility: 15 miles , 24 km
Cloud details: Few Clouds 18000 ft
Partly cloudy 24000 ft
2018/01/16 12:00 CYAM 161200Z 00000KT 15SM FEW180 SCT240 M19/M21 A3044 RMK AC1CI2 FROIN SLP327
 
KSJX - Beaver Island, Michigan, USA
Distance from station: W 60mi, 96km
Updated: 01/16/2018 8:02am
Light snow, Mostly cloudy
Light snow, Mostly cloudy
 Wind from calm
Wind: Calm
Temperature: 3°F , -16°C
Dew Point: -0°F , -18°C
Humidity: 85%
Barometer: 30.44 inHg , 1030.8 hPa
Summary: Light Snow
Clouds: Mostly cloudy
Visibility: 10 miles , 16 km
Cloud details: Mostly cloudy 2400 ft
2018/01/16 13:02 KSJX 161302Z AUTO 00000KT 10SM -SN BKN024 M16/M18 A3044 RMK AO2
KACB - Bellaire, Michigan, USA
Distance from station: SW 63mi, 102km
Updated: 01/16/2018 7:55am
Light snow, Partly cloudy
Light snow, Partly cloudy
 Wind from calm
Wind: Calm
Temperature: 7°F , -14°C
Dew Point: 5°F , -15°C
Humidity: 92%
Barometer: 30.42 inHg , 1030.1 hPa
Summary: Light Snow
Clouds: Partly cloudy
Visibility: 10 miles , 16 km
Cloud details: Partly cloudy 1100 ft
Partly cloudy 3100 ft
2018/01/16 12:55 KACB 161255Z AUTO 00000KT 10SM -SN SCT011 SCT031 M14/M15 A3042 RMK AO2 T11431147
 
CWNL - Great Duck Island, Ontario, Canada
Distance from station: E 66mi, 106km
Updated: 01/16/2018 7:00am

 Wind from NE
Wind: NE 3 mph , 6 km/h
Temperature: 9°F , -13°C
Dew Point: 5°F , -15°C
Humidity: 85%
2018/01/16 12:00 CWNL 161200Z AUTO 05003KT M13/M15 RMK AO1 SLP309 T11261148 52014
KERY - Newberry, Michigan, USA
Distance from station: NW 69mi, 112km
Updated: 01/16/2018 7:55am
Clear
Clear
 Wind from N
Wind: N 5 mph , 7 km/h
Temperature: 5°F , -15°C
Wind Chill: -5°F , -21°C
Dew Point: 3°F , -16°C
Humidity: 92%
Barometer: 30.42 inHg , 1030.1 hPa
Clouds: Clear
Visibility: 10 miles , 16 km
2018/01/16 12:55 KERY 161255Z AUTO 35004KT 10SM CLR M15/M16 A3042 RMK AO2 T11521156
 
KGOV - Grayling Af, Michigan, USA
Distance from station: SSW 70mi, 113km
Updated: 01/16/2018 7:55am

 Wind from NNW
Wind: NNW 5 mph , 7 km/h
Temperature: 3°F , -16°C
Wind Chill: -7°F , -22°C
Dew Point: -0°F , -18°C
Humidity: 85%
Barometer: 30.35 inHg , 1027.8 hPa
Visibility: 7 miles , 11 km
2018/01/16 12:55 KGOV 161255Z AUTO 34004KT 7SM M16/M18 A3035 RMK AO2 T11591182